LESO/EAS METAR and TAF weather

Enter ICAO airport designator
Station Type Date Time Source
LESO METAR 2020/07/08 01:30 UTC NOAA

LESO 080130Z AUTO 17004KT 140V210 CAVOK 17/15 Q1018


Station Type Date Time Source
LESO Decoded METAR 2020/07/08 01:30 UTC NOAA

San Sebastian / Fuenterrabia, Spain (LESO) 43-21N 001-48W 8M
Jul 07, 2020 - 09:30 PM EDT / 2020.07.08 0130 UTC
Wind: from the S (170 degrees) at 5 MPH (4 KT) (direction variable):0
Visibility: greater than 7 mile(s):0
Temperature: 62 F (17 C)
Dew Point: 59 F (15 C)
Relative Humidity: 88%
Pressure (altimeter): 30.06 in. Hg (1018 hPa)
ob: LESO 080130Z AUTO 17004KT 140V210 CAVOK 17/15 Q1018
cycle: 1

Station Type Date Time Source
LESO TAF 2020/07/07 18:27 UTC NOAA

TAF LESO 071700Z 0718/0818 VRB06KT 9999 FEW035 TX26/0813Z TN15/0804Z

Example: see airport list